createdAt,value
2024-02-02T00:02:13.506Z,9.80
2024-02-02T00:05:14.889Z,14.23
2024-02-02T00:08:16.306Z,11.25
2024-02-02T00:11:17.827Z,14.68
2024-02-02T00:14:19.209Z,11.05
2024-02-02T00:17:20.818Z,13.00
2024-02-02T00:20:22.162Z,13.05
2024-02-02T00:23:25.078Z,15.57
2024-02-02T00:26:26.568Z,14.85
2024-02-02T00:29:27.848Z,12.00
2024-02-02T00:32:29.180Z,9.55
2024-02-02T00:35:30.561Z,11.30
2024-02-02T00:38:31.875Z,13.30
2024-02-02T00:41:33.177Z,12.85
2024-02-02T00:44:34.492Z,11.00
2024-02-02T00:47:35.806Z,12.45
2024-02-02T00:50:37.145Z,14.35
2024-02-02T00:53:38.475Z,11.77
2024-02-02T00:56:40.000Z,12.45
2024-02-02T00:59:41.345Z,10.45
2024-02-02T01:02:42.665Z,13.00
2024-02-02T01:05:44.124Z,7.63
2024-02-02T01:08:45.908Z,10.45
2024-02-02T01:11:48.798Z,8.50
2024-02-02T01:14:50.248Z,10.35
2024-02-02T01:17:51.794Z,13.00
2024-02-02T01:20:53.262Z,9.82
2024-02-02T01:23:54.774Z,9.38
2024-02-02T01:26:58.000Z,10.65
2024-02-02T01:29:59.378Z,8.57
2024-02-02T01:33:00.980Z,10.13
2024-02-02T01:36:02.420Z,12.77
2024-02-02T01:39:05.337Z,11.70
2024-02-02T01:42:06.703Z,11.07
2024-02-02T01:45:08.346Z,10.52
2024-02-02T01:48:09.821Z,8.40
2024-02-02T01:51:12.532Z,7.05
2024-02-02T01:54:14.004Z,9.27
2024-02-02T01:57:15.626Z,9.60
2024-02-02T02:00:17.632Z,12.55
2024-02-02T02:03:19.269Z,12.02
2024-02-02T02:06:20.722Z,11.57
2024-02-02T02:09:22.176Z,11.23
2024-02-02T02:12:24.723Z,9.15
2024-02-02T02:15:27.366Z,10.65
2024-02-02T02:18:28.869Z,11.95
2024-02-02T02:21:30.658Z,12.05
2024-02-02T02:24:32.127Z,11.93
2024-02-02T02:27:33.962Z,13.10
2024-02-02T02:30:35.488Z,14.10
2024-02-02T02:33:40.699Z,10.40
2024-02-02T02:36:42.180Z,11.25
2024-02-02T02:39:43.532Z,12.82
2024-02-02T02:42:44.905Z,17.98
2024-02-02T02:45:46.240Z,9.15
2024-02-02T02:48:47.932Z,10.95
2024-02-02T02:51:49.330Z,10.45
2024-02-02T02:54:50.653Z,16.02
2024-02-02T02:57:54.190Z,12.70
2024-02-02T03:00:55.716Z,9.57
2024-02-02T03:03:57.215Z,8.43
2024-02-02T03:06:58.830Z,12.10
2024-02-02T03:10:00.222Z,14.00
2024-02-02T03:13:01.718Z,8.73
2024-02-02T03:16:03.897Z,8.63
2024-02-02T03:19:06.286Z,13.93
2024-02-02T03:22:07.812Z,13.60
2024-02-02T03:25:09.448Z,9.13
2024-02-02T03:28:10.814Z,11.27
2024-02-02T03:31:12.224Z,12.27
2024-02-02T03:34:13.684Z,10.25
2024-02-02T03:37:15.488Z,9.65
2024-02-02T03:40:16.852Z,13.20
2024-02-02T03:43:18.170Z,9.57
2024-02-02T03:46:20.879Z,16.30
2024-02-02T03:49:22.424Z,9.70
2024-02-02T03:52:25.237Z,14.82
2024-02-02T03:55:26.636Z,13.68
2024-02-02T03:58:27.950Z,10.40
2024-02-02T04:01:29.347Z,15.35
2024-02-02T04:04:30.753Z,16.50
2024-02-02T04:07:32.171Z,15.48
2024-02-02T04:10:34.023Z,12.18
2024-02-02T04:13:35.886Z,9.75
2024-02-02T04:16:37.248Z,12.07
2024-02-02T04:19:38.612Z,10.75
2024-02-02T04:22:40.015Z,10.90
2024-02-02T04:25:41.331Z,14.63
2024-02-02T04:28:42.723Z,15.10
2024-02-02T04:31:44.079Z,10.90
2024-02-02T04:34:45.667Z,11.68
2024-02-02T04:37:47.031Z,13.93
2024-02-02T04:40:48.697Z,16.65
2024-02-02T04:43:49.991Z,11.95
2024-02-02T04:46:51.293Z,11.10
2024-02-02T04:49:52.644Z,11.55
2024-02-02T04:52:53.971Z,12.10
2024-02-02T04:55:56.232Z,12.77
2024-02-02T04:58:57.776Z,9.32
2024-02-02T05:01:59.970Z,13.70
2024-02-02T05:05:02.117Z,11.65
2024-02-02T05:08:04.907Z,12.90
2024-02-02T05:11:06.299Z,16.42
2024-02-02T05:14:08.000Z,11.90
2024-02-02T05:17:09.778Z,8.23
2024-02-02T05:20:11.111Z,13.10
2024-02-02T05:23:12.535Z,11.07
2024-02-02T05:26:14.096Z,10.05
2024-02-02T05:29:15.473Z,12.63
2024-02-02T05:32:16.843Z,12.00
2024-02-02T05:35:18.309Z,12.02
2024-02-02T05:38:19.676Z,10.25
2024-02-02T05:41:20.985Z,11.82
2024-02-02T05:44:22.310Z,7.97
2024-02-02T05:47:23.645Z,10.07
2024-02-02T05:50:25.120Z,8.80
2024-02-02T05:53:26.472Z,11.05
2024-02-02T05:56:27.792Z,9.55
2024-02-02T05:59:29.164Z,9.30
2024-02-02T06:02:30.480Z,13.57
2024-02-02T06:05:34.101Z,12.07
2024-02-02T06:08:35.602Z,12.45
2024-02-02T06:11:37.058Z,13.18
2024-02-02T06:14:38.482Z,10.48
2024-02-02T06:17:39.839Z,10.40
2024-02-02T06:20:41.234Z,11.00
2024-02-02T06:23:42.567Z,15.38
2024-02-02T06:26:44.180Z,13.88
2024-02-02T06:29:45.733Z,6.55
2024-02-02T06:32:50.235Z,14.50
2024-02-02T06:35:51.682Z,12.20
2024-02-02T06:38:53.087Z,10.98
2024-02-02T06:41:54.477Z,10.65
2024-02-02T06:44:58.210Z,12.07
2024-02-02T06:47:59.989Z,12.20
2024-02-02T06:51:04.057Z,10.10
2024-02-02T06:54:06.539Z,11.73
2024-02-02T06:57:08.038Z,11.27
2024-02-02T07:00:12.241Z,13.38
2024-02-02T07:03:13.796Z,11.07
2024-02-02T07:06:15.193Z,8.48
2024-02-02T07:09:19.431Z,9.98
2024-02-02T07:12:26.743Z,11.30
2024-02-02T07:15:29.151Z,10.20
2024-02-02T07:18:36.677Z,20.33
2024-02-02T07:21:38.526Z,13.55
2024-02-02T07:24:42.934Z,10.70
2024-02-02T07:27:59.497Z,13.32
2024-02-02T07:31:01.025Z,16.27
2024-02-02T07:34:04.043Z,12.82
2024-02-02T07:37:17.770Z,12.85
2024-02-02T07:40:30.974Z,14.07
2024-02-02T07:43:34.246Z,10.30
2024-02-02T07:46:35.915Z,18.98
2024-02-02T07:49:37.306Z,18.63
2024-02-02T07:52:38.688Z,18.13
2024-02-02T07:55:41.168Z,12.32
2024-02-02T07:58:42.587Z,14.48
2024-02-02T08:01:43.930Z,14.70
2024-02-02T08:04:45.395Z,9.48
2024-02-02T08:07:46.773Z,16.92
2024-02-02T08:10:48.721Z,15.32
2024-02-02T08:13:51.142Z,11.90
2024-02-02T08:16:52.449Z,16.77
2024-02-02T08:19:53.849Z,12.32
2024-02-02T08:22:55.153Z,13.57
2024-02-02T08:25:56.761Z,10.70
2024-02-02T08:28:58.260Z,12.60
2024-02-02T08:31:59.794Z,14.00
2024-02-02T08:35:01.162Z,12.52
2024-02-02T08:38:03.912Z,11.27
2024-02-02T08:41:06.095Z,13.85
2024-02-02T08:44:12.575Z,12.15
2024-02-02T08:47:14.141Z,11.32
2024-02-02T08:50:16.026Z,13.95
2024-02-02T08:53:17.669Z,14.77
2024-02-02T08:56:19.075Z,11.52
2024-02-02T08:59:34.076Z,10.95
2024-02-02T09:02:38.625Z,14.18
2024-02-02T09:06:00.611Z,14.32
2024-02-02T09:09:07.018Z,13.38
2024-02-02T09:12:08.731Z,13.63
2024-02-02T09:15:17.358Z,13.73
2024-02-02T09:18:31.684Z,15.70
2024-02-02T09:21:34.397Z,11.77
2024-02-02T09:24:41.298Z,17.50
2024-02-02T09:27:43.373Z,12.43
2024-02-02T09:30:44.867Z,13.32
2024-02-02T09:33:48.086Z,15.45
2024-02-02T09:36:49.573Z,14.45
2024-02-02T09:39:55.338Z,16.33
2024-02-02T09:43:03.464Z,15.50
2024-02-02T09:46:15.225Z,13.43
2024-02-02T09:49:23.476Z,14.27
2024-02-02T09:52:25.061Z,14.35
2024-02-02T09:55:26.499Z,10.57
2024-02-02T09:58:33.796Z,10.15
2024-02-02T10:01:46.332Z,11.93
2024-02-02T10:04:53.721Z,11.95
2024-02-02T10:07:57.892Z,10.02
2024-02-02T10:14:36.525Z,12.55
2024-02-02T10:17:37.895Z,11.35
2024-02-02T10:20:46.942Z,9.95
2024-02-02T10:23:58.530Z,7.85
2024-02-02T10:27:10.447Z,9.13
2024-02-02T10:30:14.820Z,11.15
2024-02-02T10:33:36.151Z,12.23
2024-02-02T10:36:40.967Z,14.32
2024-02-02T10:42:54.711Z,13.52
2024-02-02T10:46:13.448Z,10.50
2024-02-02T10:49:32.976Z,12.07
2024-02-02T10:52:43.296Z,7.47
2024-02-02T10:56:03.233Z,10.10
2024-02-02T10:59:17.148Z,10.48
2024-02-02T11:02:33.552Z,8.20
2024-02-02T11:05:53.517Z,12.43
2024-02-02T11:09:02.490Z,9.43
2024-02-02T11:12:12.776Z,7.80
2024-02-02T11:15:22.819Z,8.55
2024-02-02T11:18:32.647Z,9.25
2024-02-02T11:21:52.786Z,6.82
2024-02-02T11:25:14.631Z,7.43
2024-02-02T11:28:29.788Z,7.80
2024-02-02T11:31:37.061Z,7.13
2024-02-02T11:34:40.288Z,5.90
2024-02-02T11:37:52.974Z,5.75
2024-02-02T11:40:55.346Z,6.70
2024-02-02T11:43:57.228Z,7.40
2024-02-02T11:46:59.463Z,7.55
2024-02-02T11:50:07.553Z,6.72
2024-02-02T11:53:15.780Z,5.90
2024-02-02T11:56:20.702Z,8.52
2024-02-02T11:59:32.075Z,8.18
2024-02-02T12:02:39.797Z,8.82
2024-02-02T12:05:54.343Z,6.57
2024-02-02T12:09:15.936Z,5.78
2024-02-02T12:12:37.762Z,8.80
2024-02-02T12:15:39.207Z,7.18
2024-02-02T12:18:45.383Z,7.60
2024-02-02T12:21:47.076Z,7.53
2024-02-02T12:24:48.662Z,6.97
2024-02-02T12:27:50.416Z,5.63
2024-02-02T12:30:51.825Z,4.63
2024-02-02T12:33:53.435Z,4.95
2024-02-02T12:36:54.993Z,5.38
2024-02-02T12:39:56.402Z,5.80
2024-02-02T12:42:58.702Z,6.78
2024-02-02T12:49:01.611Z,6.65
2024-02-02T12:52:03.312Z,4.95
2024-02-02T12:55:04.775Z,5.13
2024-02-02T12:58:06.966Z,6.15
2024-02-02T13:01:08.473Z,7.43
2024-02-02T13:04:10.608Z,4.95
2024-02-02T13:07:12.600Z,6.40
2024-02-02T13:10:14.045Z,4.38
2024-02-02T13:13:18.083Z,4.82
2024-02-02T13:19:36.449Z,4.97
2024-02-02T13:22:38.346Z,4.60
2024-02-02T13:25:42.843Z,4.10
2024-02-02T13:28:49.844Z,3.20
2024-02-02T13:31:51.884Z,6.10
2024-02-02T13:34:55.791Z,3.10
2024-02-02T13:37:57.676Z,4.32
2024-02-02T13:41:00.300Z,4.68
2024-02-02T13:44:05.540Z,4.22
2024-02-02T13:47:10.949Z,3.53
2024-02-02T13:50:21.082Z,2.85
2024-02-02T13:53:23.445Z,4.95
2024-02-02T13:56:26.398Z,4.07
2024-02-02T13:59:28.097Z,5.00
2024-02-02T14:02:29.420Z,4.57
2024-02-02T14:05:31.090Z,3.30
2024-02-02T14:08:46.140Z,4.25
2024-02-02T14:11:47.552Z,4.10
2024-02-02T14:14:49.084Z,4.82
2024-02-02T14:17:50.807Z,3.38
2024-02-02T14:20:52.402Z,3.28
2024-02-02T14:23:53.721Z,3.58
2024-02-02T14:26:56.098Z,4.38
2024-02-02T14:29:57.504Z,3.47
2024-02-02T14:33:08.965Z,4.20
2024-02-02T14:36:20.221Z,2.97
2024-02-02T14:39:26.357Z,4.88
2024-02-02T14:42:31.077Z,3.28
2024-02-02T14:48:34.320Z,3.45
2024-02-02T14:51:35.807Z,5.45
2024-02-02T14:54:37.317Z,3.45
2024-02-02T14:57:45.096Z,6.65
2024-02-02T15:00:48.729Z,4.20
2024-02-02T15:03:50.394Z,3.95
2024-02-02T15:06:52.102Z,4.50
2024-02-02T15:09:53.877Z,3.78
2024-02-02T15:12:56.134Z,5.68
2024-02-02T15:15:57.505Z,3.70
2024-02-02T15:19:01.468Z,3.00
2024-02-02T15:22:02.929Z,3.28
2024-02-02T15:25:05.726Z,2.63
2024-02-02T15:28:07.108Z,4.65
2024-02-02T15:31:08.910Z,4.88
2024-02-02T15:34:10.445Z,5.00
2024-02-02T15:37:12.176Z,4.32
2024-02-02T15:40:14.979Z,4.32
2024-02-02T15:43:17.613Z,6.65
2024-02-02T15:46:19.389Z,6.18
2024-02-02T15:49:20.929Z,5.78
2024-02-02T15:52:22.433Z,4.65
2024-02-02T15:55:23.760Z,4.82
2024-02-02T15:58:25.141Z,4.65
2024-02-02T16:01:26.876Z,6.15
2024-02-02T16:04:29.601Z,5.50
2024-02-02T16:07:31.548Z,7.10
2024-02-02T16:10:33.902Z,8.73
2024-02-02T16:13:35.300Z,9.15
2024-02-02T16:16:40.122Z,12.18
2024-02-02T16:19:41.693Z,10.27
2024-02-02T16:22:43.329Z,9.00
2024-02-02T16:25:44.698Z,5.70
2024-02-02T16:28:46.210Z,5.50
2024-02-02T16:31:50.446Z,6.28
2024-02-02T16:34:52.055Z,8.40
2024-02-02T16:37:53.431Z,6.13
2024-02-02T16:40:54.746Z,4.95
2024-02-02T16:43:56.057Z,9.10
2024-02-02T16:46:57.434Z,4.60
2024-02-02T16:49:58.968Z,5.05
2024-02-02T16:53:00.558Z,5.45
2024-02-02T16:56:01.986Z,5.88
2024-02-02T16:59:03.981Z,5.28
2024-02-02T17:02:05.665Z,6.70
2024-02-02T17:05:07.785Z,8.90
2024-02-02T17:08:09.376Z,7.75
2024-02-02T17:11:10.929Z,6.97
2024-02-02T17:14:12.322Z,6.45
2024-02-02T17:17:13.667Z,6.50
2024-02-02T17:20:18.922Z,8.13
2024-02-02T17:23:20.360Z,5.75
2024-02-02T17:26:21.677Z,5.63
2024-02-02T17:29:23.086Z,6.60
2024-02-02T17:32:24.394Z,6.65
2024-02-02T17:35:34.121Z,7.03
2024-02-02T17:38:42.421Z,7.20
2024-02-02T17:41:43.798Z,5.13
2024-02-02T17:44:45.136Z,4.95
2024-02-02T17:47:46.456Z,5.50
2024-02-02T17:50:48.183Z,4.82
2024-02-02T17:53:49.537Z,6.18
2024-02-02T17:56:50.886Z,6.68
2024-02-02T17:59:52.229Z,7.13
2024-02-02T18:02:53.589Z,5.60
2024-02-02T18:05:55.234Z,6.38
2024-02-02T18:08:56.595Z,6.20
2024-02-02T18:11:57.901Z,8.40
2024-02-02T18:14:59.585Z,8.85
2024-02-02T18:18:01.040Z,6.97
2024-02-02T18:21:02.566Z,7.82
2024-02-02T18:24:04.220Z,11.02
2024-02-02T18:27:05.972Z,12.45
2024-02-02T18:30:07.635Z,8.32
2024-02-02T18:33:09.534Z,8.98
2024-02-02T18:36:10.979Z,9.35
2024-02-02T18:39:15.499Z,9.52
2024-02-02T18:45:18.440Z,7.68
2024-02-02T18:48:20.534Z,9.68
2024-02-02T18:51:22.770Z,7.95
2024-02-02T18:54:24.550Z,7.68
2024-02-02T18:57:25.993Z,6.15
2024-02-02T19:00:27.585Z,6.28
2024-02-02T19:03:29.073Z,6.28
2024-02-02T19:06:30.676Z,9.10
2024-02-02T19:09:33.230Z,8.63
2024-02-02T19:12:34.589Z,6.55
2024-02-02T19:15:35.964Z,7.13
2024-02-02T19:18:37.430Z,7.10
2024-02-02T19:21:40.451Z,6.68
2024-02-02T19:24:42.917Z,7.50
2024-02-02T19:27:44.304Z,8.48
2024-02-02T19:30:45.745Z,8.63
2024-02-02T19:33:47.447Z,10.10
2024-02-02T19:36:48.917Z,10.48
2024-02-02T19:39:50.418Z,8.02
2024-02-02T19:42:51.858Z,7.88
2024-02-02T19:45:53.256Z,7.50
2024-02-02T19:48:55.526Z,28.67
2024-02-02T19:51:57.025Z,28.20
2024-02-02T19:54:59.377Z,11.55
2024-02-02T19:58:00.864Z,10.82
2024-02-02T20:01:02.295Z,9.32
2024-02-02T20:04:03.925Z,12.88
2024-02-02T20:07:05.571Z,12.52
2024-02-02T20:10:07.631Z,9.73
2024-02-02T20:13:08.995Z,10.40
2024-02-02T20:16:13.417Z,10.27
2024-02-02T20:19:14.910Z,10.40
2024-02-02T20:22:16.316Z,12.00
2024-02-02T20:25:18.415Z,15.38
2024-02-02T20:28:19.781Z,14.40
2024-02-02T20:31:21.681Z,16.63
2024-02-02T20:34:23.179Z,10.23
2024-02-02T20:37:24.581Z,9.02
2024-02-02T20:40:26.044Z,11.35
2024-02-02T20:43:27.500Z,11.70
2024-02-02T20:46:28.854Z,12.73
2024-02-02T20:49:30.308Z,11.70
2024-02-02T20:52:31.797Z,15.20
2024-02-02T20:55:33.194Z,15.70
2024-02-02T20:58:34.557Z,13.43
2024-02-02T21:01:35.953Z,14.30
2024-02-02T21:04:37.331Z,20.73
2024-02-02T21:07:39.120Z,16.05
2024-02-02T21:10:40.582Z,17.20
2024-02-02T21:13:44.750Z,15.95
2024-02-02T21:16:46.555Z,14.93
2024-02-02T21:19:48.115Z,14.63
2024-02-02T21:22:49.586Z,12.10
2024-02-02T21:25:50.910Z,15.65
2024-02-02T21:28:52.236Z,14.32
2024-02-02T21:31:53.558Z,20.42
2024-02-02T21:34:57.425Z,19.77
2024-02-02T21:37:59.200Z,16.67
2024-02-02T21:41:01.579Z,23.13
2024-02-02T21:44:03.007Z,15.50
2024-02-02T21:47:04.554Z,16.65
2024-02-02T21:50:06.562Z,12.95
2024-02-02T21:53:10.801Z,12.05
2024-02-02T21:56:15.384Z,13.70
2024-02-02T21:59:16.746Z,15.95
2024-02-02T22:02:18.071Z,15.27
2024-02-02T22:05:19.386Z,13.52
2024-02-02T22:08:20.724Z,12.60
2024-02-02T22:11:22.054Z,10.35
2024-02-02T22:14:24.179Z,12.63
2024-02-02T22:17:26.126Z,15.85
2024-02-02T22:20:27.533Z,11.02
2024-02-02T22:23:28.840Z,11.30
2024-02-02T22:26:30.264Z,11.90
2024-02-02T22:29:31.643Z,11.65
2024-02-02T22:32:32.962Z,7.72
2024-02-02T22:35:36.082Z,10.57
2024-02-02T22:38:37.486Z,11.50
2024-02-02T22:41:38.829Z,11.13
2024-02-02T22:44:40.151Z,10.82
2024-02-02T22:47:41.513Z,12.40
2024-02-02T22:50:42.935Z,10.80
2024-02-02T22:53:44.214Z,12.00
2024-02-02T22:56:45.567Z,11.02
2024-02-02T22:59:53.472Z,11.85
2024-02-02T23:03:00.677Z,9.70
2024-02-02T23:06:03.168Z,10.05
2024-02-02T23:09:04.700Z,9.80
2024-02-02T23:12:09.437Z,10.00
2024-02-02T23:18:13.294Z,10.27
2024-02-02T23:21:14.966Z,9.55
2024-02-02T23:24:16.385Z,8.68
2024-02-02T23:27:17.837Z,8.65
2024-02-02T23:30:19.524Z,9.23
2024-02-02T23:33:20.975Z,8.95
2024-02-02T23:36:22.794Z,8.38
2024-02-02T23:39:24.154Z,8.35
2024-02-02T23:42:25.780Z,9.23
2024-02-02T23:45:27.218Z,7.88
2024-02-02T23:48:28.657Z,8.13
2024-02-02T23:51:30.072Z,9.65
2024-02-02T23:54:31.423Z,9.18
2024-02-02T23:57:32.820Z,8.13
